Time;durP1;ratioP1;P1;durP2;ratioP2;P2;SDS_P1;SDS_P2;PMS_P1;PMS_P2;Temp;Humidity;BMP_temperature;BMP_pressure;BME280_temperature;BME280_humidity;BME280_pressure;Samples;Min_cycle;Max_cycle;Signal;HPM_P1;HPM_P2
2021/12/18 00:01:10;;;;;;;;;;;9.50;99.90;;;;;;5076027;28;19939;-73
2021/12/18 00:03:37;;;;;;;;;;;9.50;99.90;;;;;;5075072;28;19932;-73
2021/12/18 00:06:04;;;;;;;;;;;9.50;99.90;;;;;;5074955;28;20286;-74
2021/12/18 00:08:31;;;;;;;;;;;9.50;99.90;;;;;;5090989;28;19932;-73
2021/12/18 00:10:58;;;;;;;;;;;9.50;99.90;;;;;;5075348;28;20035;-74
2021/12/18 00:13:25;;;;;;;;;;;9.50;99.90;;;;;;5075792;28;19932;-73
2021/12/18 00:15:53;;;;;;;;;;;9.50;99.90;;;;;;5073517;28;19939;-73
2021/12/18 00:18:20;;;;;;;;;;;9.50;99.90;;;;;;5074864;28;19955;-73
2021/12/18 00:20:46;;;;;;;;;;;9.50;99.90;;;;;;5073216;28;19939;-73
2021/12/18 00:23:13;;;;;;;;;;;9.50;99.90;;;;;;5074320;28;19933;-73
2021/12/18 00:25:40;;;;;;;;;;;9.50;99.90;;;;;;5074985;28;20650;-73
2021/12/18 00:28:07;;;;;;;;;;;9.50;99.90;;;;;;5075046;28;19939;-73
2021/12/18 00:30:35;;;;;;;;;;;9.50;99.90;;;;;;5074535;28;19986;-73
2021/12/18 00:33:03;;;;;;;;;;;9.50;99.90;;;;;;5075399;28;20292;-73
2021/12/18 00:35:29;;;;;;;;;;;9.50;99.90;;;;;;5073776;28;19932;-72
2021/12/18 00:37:56;;;;;;;;;;;9.50;99.90;;;;;;5073930;28;19932;-73
2021/12/18 00:40:25;;;;;;;;;;;9.50;99.90;;;;;;5075400;28;20386;-73
2021/12/18 00:42:58;;;;;;;;;;;9.50;99.90;;;;;;5074282;28;19939;-73
2021/12/18 00:45:25;;;;;;;;;;;9.50;99.90;;;;;;5075194;28;19932;-73
2021/12/18 00:47:52;;;;;;;;;;;9.50;99.90;;;;;;5088743;28;19943;-74
2021/12/18 00:50:21;;;;;;;;;;;9.50;99.90;;;;;;5073886;28;19932;-74
2021/12/18 00:52:48;;;;;;;;;;;9.50;99.90;;;;;;5078331;28;19939;-73
2021/12/18 00:55:15;;;;;;;;;;;9.40;99.90;;;;;;5077758;28;20230;-73
2021/12/18 00:57:44;;;;;;;;;;;9.50;99.90;;;;;;5086478;28;20341;-72
2021/12/18 01:00:11;;;;;;;;;;;9.40;99.90;;;;;;5078577;28;19932;-73
2021/12/18 01:02:42;;;;;;;;;;;9.40;99.90;;;;;;5079436;28;19932;-73
2021/12/18 01:05:09;;;;;;;;;;;9.30;99.90;;;;;;5077376;28;20027;-73
2021/12/18 01:07:37;;;;;;;;;;;9.30;99.90;;;;;;5079151;28;19928;-73
2021/12/18 01:10:19;;;;;;;;;;;9.20;99.90;;;;;;5077549;28;19939;-73
2021/12/18 01:12:48;;;;;;;;;;;9.30;99.90;;;;;;5080188;28;20010;-73
2021/12/18 01:15:19;;;;;;;;;;;9.30;99.90;;;;;;5079207;28;19934;-73
2021/12/18 01:23:16;;;;;;;;;;;9.30;99.90;;;;;;5079361;28;19928;-71
2021/12/18 01:25:43;;;;;;;;;;;9.30;99.90;;;;;;5079114;28;20416;-71
2021/12/18 01:28:10;;;;;;;;;;;9.20;99.90;;;;;;5077505;28;19932;-71
2021/12/18 01:30:37;;;;;;;;;;;9.20;99.90;;;;;;5076727;28;19939;-71
2021/12/18 01:33:03;;;;;;;;;;;9.30;99.90;;;;;;5074847;28;19939;-71
2021/12/18 01:35:30;;;;;;;;;;;9.20;99.90;;;;;;5075945;28;19928;-71
2021/12/18 01:37:57;;;;;;;;;;;9.20;99.90;;;;;;5077738;28;19932;-71
2021/12/18 01:40:26;;;;;;;;;;;9.80;99.90;;;;;;5076426;28;19932;-71
2021/12/18 01:45:58;;;;;;;;;;;9.10;99.90;;;;;;5076798;28;19937;-71
2021/12/18 01:51:18;;;;;;;;;;;9.10;99.90;;;;;;5076217;28;19928;-71
2021/12/18 01:53:45;;;;;;;;;;;9.10;99.90;;;;;;5072243;28;20064;-71
2021/12/18 01:56:13;;;;;;;;;;;9.00;99.90;;;;;;5075640;28;19983;-70
2021/12/18 01:58:40;;;;;;;;;;;9.00;99.90;;;;;;5075655;28;19947;-71
2021/12/18 02:01:07;;;;;;;;;;;9.00;99.90;;;;;;5078154;28;19931;-71
2021/12/18 02:03:34;;;;;;;;;;;10.30;99.90;;;;;;5079330;28;19939;-71
2021/12/18 02:06:00;;;;;;;;;;;9.00;99.90;;;;;;5077027;28;19932;-71
2021/12/18 02:08:29;;;;;;;;;;;8.90;99.90;;;;;;5077303;28;19959;-71
2021/12/18 02:11:00;;;;;;;;;;;8.90;99.90;;;;;;5078737;28;20347;-73
2021/12/18 02:13:47;;;;;;;;;;;8.90;99.90;;;;;;5078792;28;20916;-72
2021/12/18 02:21:43;;;;;;;;;;;8.90;99.90;;;;;;5076348;28;19949;-73
2021/12/18 02:24:10;;;;;;;;;;;10.10;99.90;;;;;;5077789;28;20424;-73
2021/12/18 02:26:37;;;;;;;;;;;9.00;99.90;;;;;;5079094;28;19928;-73
2021/12/18 02:29:05;;;;;;;;;;;8.90;99.90;;;;;;5074672;28;19932;-73
2021/12/18 02:31:32;;;;;;;;;;;8.90;99.90;;;;;;5074379;28;20325;-73
2021/12/18 02:33:59;;;;;;;;;;;8.90;99.90;;;;;;5076947;28;20401;-73
2021/12/18 02:36:25;;;;;;;;;;;8.80;99.90;;;;;;5073977;28;19936;-73
2021/12/18 02:39:19;;;;;;;;;;;8.70;99.90;;;;;;5074308;28;19932;-73
2021/12/18 02:42:06;;;;;;;;;;;8.70;99.90;;;;;;5075689;28;20029;-73
2021/12/18 02:44:33;;;;;;;;;;;8.70;99.90;;;;;;5076498;28;20865;-73
2021/12/18 02:47:00;;;;;;;;;;;8.70;99.90;;;;;;5074005;28;20696;-73
2021/12/18 02:49:28;;;;;;;;;;;8.70;99.90;;;;;;5074908;28;20360;-73
2021/12/18 02:51:54;;;;;;;;;;;8.70;99.90;;;;;;5077224;28;19932;-74
2021/12/18 02:54:23;;;;;;;;;;;8.70;99.90;;;;;;5074620;28;19932;-72
2021/12/18 02:56:49;;;;;;;;;;;8.70;99.90;;;;;;5075611;28;19951;-73
2021/12/18 02:59:17;;;;;;;;;;;8.60;99.90;;;;;;5074648;28;20437;-72
2021/12/18 03:01:43;;;;;;;;;;;8.60;99.90;;;;;;5076087;28;19932;-72
2021/12/18 03:04:17;;;;;;;;;;;8.70;99.90;;;;;;5075064;28;20360;-72
2021/12/18 03:06:46;;;;;;;;;;;8.70;99.90;;;;;;5073900;28;20025;-72
2021/12/18 03:09:43;;;;;;;;;;;8.70;99.90;;;;;;5073539;28;19971;-73
2021/12/18 03:21:06;;;;;;;;;;;8.90;99.90;;;;;;5076197;28;19928;-73
2021/12/18 03:23:31;;;;;;;;;;;8.90;99.90;;;;;;5074087;28;19976;-72
2021/12/18 03:26:00;;;;;;;;;;;8.90;99.90;;;;;;5073161;28;20000;-73
2021/12/18 03:28:29;;;;;;;;;;;8.90;99.90;;;;;;5075976;28;20408;-73
2021/12/18 03:30:56;;;;;;;;;;;8.80;99.90;;;;;;5075509;28;20335;-73
2021/12/18 03:33:23;;;;;;;;;;;8.80;99.90;;;;;;5077176;28;20110;-73
2021/12/18 03:35:50;;;;;;;;;;;8.90;99.90;;;;;;5076471;28;20026;-73
2021/12/18 03:38:17;;;;;;;;;;;8.80;99.90;;;;;;5075970;28;19932;-72
2021/12/18 03:40:43;;;;;;;;;;;8.70;99.90;;;;;;5074037;28;20380;-72
2021/12/18 03:43:10;;;;;;;;;;;8.70;99.90;;;;;;5074016;28;19935;-72
2021/12/18 03:45:38;;;;;;;;;;;8.60;99.90;;;;;;5076394;28;19943;-73
2021/12/18 03:48:05;;;;;;;;;;;8.60;99.90;;;;;;5074678;28;19928;-72
2021/12/18 03:50:32;;;;;;;;;;;8.60;99.90;;;;;;5077718;28;20038;-72
2021/12/18 03:52:59;;;;;;;;;;;8.60;99.90;;;;;;5075310;28;19939;-73
2021/12/18 03:55:26;;;;;;;;;;;8.60;99.90;;;;;;5076731;28;19924;-72
2021/12/18 03:57:53;;;;;;;;;;;8.60;99.90;;;;;;5073834;28;20413;-72
2021/12/18 04:00:20;;;;;;;;;;;8.60;99.90;;;;;;5073140;28;19936;-72
2021/12/18 04:02:48;;;;;;;;;;;8.50;99.90;;;;;;5075773;28;20053;-72
2021/12/18 04:05:15;;;;;;;;;;;8.60;99.90;;;;;;5073817;28;20157;-73
2021/12/18 04:07:44;;;;;;;;;;;8.60;99.90;;;;;;5074259;28;19932;-73
2021/12/18 04:10:11;;;;;;;;;;;8.70;99.90;;;;;;5075504;28;19932;-73
2021/12/18 04:12:38;;;;;;;;;;;8.70;99.90;;;;;;5076603;28;19928;-73
2021/12/18 04:15:05;;;;;;;;;;;8.70;99.90;;;;;;5070338;28;19928;-72
2021/12/18 04:17:32;;;;;;;;;;;8.70;99.90;;;;;;5073694;28;19932;-73
2021/12/18 04:20:00;;;;;;;;;;;8.80;99.90;;;;;;5075492;28;19935;-73
2021/12/18 04:22:27;;;;;;;;;;;8.80;99.90;;;;;;5073659;28;20341;-73
2021/12/18 04:24:54;;;;;;;;;;;8.90;99.90;;;;;;5075771;28;20317;-72
2021/12/18 04:27:21;;;;;;;;;;;8.90;99.90;;;;;;5075362;28;19939;-72
2021/12/18 04:29:47;;;;;;;;;;;8.90;99.90;;;;;;5078539;28;20409;-73
2021/12/18 04:32:14;;;;;;;;;;;8.80;99.90;;;;;;5077872;28;19955;-72
2021/12/18 04:34:41;;;;;;;;;;;8.70;99.90;;;;;;5077861;28;19932;-72
2021/12/18 04:37:09;;;;;;;;;;;8.70;99.90;;;;;;5077653;28;19932;-73
2021/12/18 04:39:36;;;;;;;;;;;8.70;99.90;;;;;;5079251;28;20411;-73
2021/12/18 04:42:03;;;;;;;;;;;8.60;99.90;;;;;;5076877;28;19932;-73
2021/12/18 04:44:29;;;;;;;;;;;8.70;99.90;;;;;;5080143;28;19939;-72
2021/12/18 04:46:56;;;;;;;;;;;8.70;99.90;;;;;;5078665;28;19932;-73
2021/12/18 04:49:23;;;;;;;;;;;8.80;99.90;;;;;;5078034;28;19939;-73
2021/12/18 04:51:49;;;;;;;;;;;8.80;99.90;;;;;;5077805;28;19936;-73
2021/12/18 04:54:17;;;;;;;;;;;8.80;99.90;;;;;;5079023;28;19939;-73
2021/12/18 04:56:44;;;;;;;;;;;8.90;99.90;;;;;;5077692;28;19932;-73
2021/12/18 04:59:12;;;;;;;;;;;8.90;99.90;;;;;;5078477;28;19932;-72
2021/12/18 05:01:40;;;;;;;;;;;11.30;99.90;;;;;;5079794;28;19938;-72
2021/12/18 05:04:09;;;;;;;;;;;8.90;99.90;;;;;;5076892;28;19958;-72
2021/12/18 05:06:37;;;;;;;;;;;8.90;99.90;;;;;;5076983;28;19989;-72
2021/12/18 05:09:04;;;;;;;;;;;8.90;99.90;;;;;;5076348;28;20134;-73
2021/12/18 05:11:32;;;;;;;;;;;8.80;99.90;;;;;;5077407;28;19939;-73
2021/12/18 05:13:59;;;;;;;;;;;8.90;99.90;;;;;;5078566;28;19955;-73
2021/12/18 05:16:25;;;;;;;;;;;8.80;99.90;;;;;;5077590;28;19951;-73
2021/12/18 05:18:52;;;;;;;;;;;8.80;99.90;;;;;;5077265;28;19936;-74
2021/12/18 05:21:19;;;;;;;;;;;8.80;99.90;;;;;;5079425;28;20231;-73
2021/12/18 05:23:46;;;;;;;;;;;8.80;99.90;;;;;;5075769;28;19936;-73
2021/12/18 05:26:12;;;;;;;;;;;8.90;99.90;;;;;;5077702;28;19944;-73
2021/12/18 05:28:40;;;;;;;;;;;8.90;99.90;;;;;;5079099;28;19932;-73
2021/12/18 05:31:09;;;;;;;;;;;8.90;99.90;;;;;;5076985;28;19939;-73
2021/12/18 05:33:36;;;;;;;;;;;8.90;99.90;;;;;;5078688;28;19947;-72
2021/12/18 05:36:13;;;;;;;;;;;8.90;99.90;;;;;;5076133;28;20221;-73
2021/12/18 05:38:39;;;;;;;;;;;8.90;99.90;;;;;;5078600;28;19974;-72
2021/12/18 05:41:06;;;;;;;;;;;8.90;99.90;;;;;;5078456;28;20431;-73
2021/12/18 05:43:33;;;;;;;;;;;8.90;99.90;;;;;;5095227;28;19939;-72
2021/12/18 05:46:01;;;;;;;;;;;9.00;99.90;;;;;;5077833;28;19966;-73
2021/12/18 05:48:27;;;;;;;;;;;9.00;99.90;;;;;;5077875;28;19932;-73
2021/12/18 05:50:54;;;;;;;;;;;8.90;99.90;;;;;;5074630;28;19932;-73
2021/12/18 05:53:21;;;;;;;;;;;8.90;99.90;;;;;;5078791;28;20313;-73
2021/12/18 05:55:47;;;;;;;;;;;8.80;99.90;;;;;;5078095;28;19932;-73
2021/12/18 05:58:14;;;;;;;;;;;8.80;99.90;;;;;;5076996;28;19958;-73
2021/12/18 06:00:41;;;;;;;;;;;8.80;99.90;;;;;;5077114;28;20393;-73
2021/12/18 06:03:09;;;;;;;;;;;8.80;99.90;;;;;;5072512;28;19939;-73
2021/12/18 06:05:36;;;;;;;;;;;8.80;99.90;;;;;;5077200;28;19932;-73
2021/12/18 06:08:09;;;;;;;;;;;8.80;99.90;;;;;;5077447;28;19938;-72
2021/12/18 06:10:37;;;;;;;;;;;8.70;99.90;;;;;;5076745;28;19932;-73
2021/12/18 06:13:04;;;;;;;;;;;8.80;99.90;;;;;;5077522;28;20028;-73
2021/12/18 06:15:31;;;;;;;;;;;8.80;99.90;;;;;;5078346;28;19932;-73
2021/12/18 06:17:58;;;;;;;;;;;8.80;99.90;;;;;;5076368;28;20833;-72
2021/12/18 06:20:27;;;;;;;;;;;8.70;99.90;;;;;;5077240;28;20374;-73
2021/12/18 06:22:54;;;;;;;;;;;8.80;99.90;;;;;;5077628;28;19939;-73
2021/12/18 06:25:20;;;;;;;;;;;8.90;99.90;;;;;;5076219;28;19932;-73
2021/12/18 06:27:47;;;;;;;;;;;8.80;99.90;;;;;;5077286;28;19932;-73
2021/12/18 06:30:16;;;;;;;;;;;8.90;99.90;;;;;;5075375;28;19932;-73
2021/12/18 06:32:43;;;;;;;;;;;8.90;99.90;;;;;;5076502;28;19939;-73
2021/12/18 06:35:10;;;;;;;;;;;8.90;99.90;;;;;;5074648;28;19932;-73
2021/12/18 06:37:38;;;;;;;;;;;9.00;99.90;;;;;;5074761;28;19932;-73
2021/12/18 06:40:06;;;;;;;;;;;9.00;99.90;;;;;;5075719;28;19974;-73
2021/12/18 06:42:32;;;;;;;;;;;9.00;99.90;;;;;;5077506;28;19932;-73
2021/12/18 06:44:59;;;;;;;;;;;9.00;99.90;;;;;;5079016;28;19939;-73
2021/12/18 06:47:26;;;;;;;;;;;9.00;99.90;;;;;;5077337;28;20741;-73
2021/12/18 06:49:52;;;;;;;;;;;9.00;99.90;;;;;;5074048;28;19936;-73
2021/12/18 06:52:19;;;;;;;;;;;9.00;99.90;;;;;;5076221;28;19947;-73
2021/12/18 06:54:47;;;;;;;;;;;9.10;99.90;;;;;;5074861;28;20096;-73
2021/12/18 06:57:14;;;;;;;;;;;9.00;99.90;;;;;;5074550;28;20284;-73
2021/12/18 06:59:40;;;;;;;;;;;9.10;99.90;;;;;;5074819;28;20350;-73
2021/12/18 07:02:07;;;;;;;;;;;9.00;99.90;;;;;;5075782;28;19932;-73
2021/12/18 07:04:36;;;;;;;;;;;9.00;99.90;;;;;;5075554;28;19932;-73
2021/12/18 07:07:03;;;;;;;;;;;9.00;99.90;;;;;;5075241;28;19932;-73
2021/12/18 07:09:30;;;;;;;;;;;9.10;99.90;;;;;;5074747;28;19991;-73
2021/12/18 07:11:58;;;;;;;;;;;9.00;99.90;;;;;;5077578;28;19939;-73
2021/12/18 07:14:26;;;;;;;;;;;9.00;99.90;;;;;;5081341;28;19940;-73
2021/12/18 07:16:52;;;;;;;;;;;9.00;99.90;;;;;;5081076;28;19939;-73
2021/12/18 07:19:19;;;;;;;;;;;9.00;99.90;;;;;;5079636;28;19987;-73
2021/12/18 07:21:46;;;;;;;;;;;9.00;99.90;;;;;;5079519;28;19928;-73
2021/12/18 07:24:12;;;;;;;;;;;9.00;99.90;;;;;;5079216;28;19936;-72
2021/12/18 07:26:39;;;;;;;;;;;9.00;99.90;;;;;;5080484;28;19962;-74
2021/12/18 07:29:08;;;;;;;;;;;11.40;99.90;;;;;;5077774;28;19931;-74
2021/12/18 07:31:35;;;;;;;;;;;9.00;99.90;;;;;;5077348;28;19932;-74
2021/12/18 07:34:02;;;;;;;;;;;9.00;99.90;;;;;;5090778;28;20239;-73
2021/12/18 07:36:29;;;;;;;;;;;9.00;99.90;;;;;;5072447;28;20215;-73
2021/12/18 07:38:55;;;;;;;;;;;9.10;99.90;;;;;;5075729;28;20015;-73
2021/12/18 07:41:22;;;;;;;;;;;9.00;99.90;;;;;;5076586;28;20045;-73
2021/12/18 07:43:49;;;;;;;;;;;10.10;99.90;;;;;;5078481;28;19932;-73
2021/12/18 07:46:17;;;;;;;;;;;9.80;99.90;;;;;;5076901;28;19932;-73
2021/12/18 07:48:45;;;;;;;;;;;9.10;99.90;;;;;;5073397;28;19932;-73
2021/12/18 07:51:12;;;;;;;;;;;9.10;99.90;;;;;;5075359;28;19932;-73
2021/12/18 07:53:38;;;;;;;;;;;9.10;99.90;;;;;;5073984;28;19935;-74
2021/12/18 07:56:05;;;;;;;;;;;9.10;99.90;;;;;;5079755;28;20311;-73
2021/12/18 07:58:32;;;;;;;;;;;9.10;99.90;;;;;;5082438;28;19931;-73
2021/12/18 08:00:59;;;;;;;;;;;9.20;99.90;;;;;;5085947;28;19928;-73
2021/12/18 08:03:27;;;;;;;;;;;9.20;99.90;;;;;;5080645;28;19928;-74
2021/12/18 08:05:53;;;;;;;;;;;9.20;99.90;;;;;;5082409;28;19932;-74
2021/12/18 08:08:20;;;;;;;;;;;9.10;99.90;;;;;;5085407;28;20231;-74
2021/12/18 08:10:47;;;;;;;;;;;9.40;99.90;;;;;;5085711;28;20301;-73
2021/12/18 08:13:13;;;;;;;;;;;9.20;99.90;;;;;;5085972;28;19935;-73
2021/12/18 08:15:40;;;;;;;;;;;9.30;99.90;;;;;;5081743;28;20297;-73
2021/12/18 08:18:07;;;;;;;;;;;9.20;99.90;;;;;;5086742;28;19932;-73
2021/12/18 08:20:36;;;;;;;;;;;9.30;99.90;;;;;;5085404;28;19928;-74
2021/12/18 08:23:03;;;;;;;;;;;11.70;99.90;;;;;;5085068;28;19935;-74
2021/12/18 08:25:29;;;;;;;;;;;9.30;99.90;;;;;;5083951;28;19928;-74
2021/12/18 08:27:58;;;;;;;;;;;9.30;99.90;;;;;;5078461;28;19925;-74
2021/12/18 08:30:25;;;;;;;;;;;9.30;99.90;;;;;;5085193;28;19952;-74
2021/12/18 08:32:51;;;;;;;;;;;9.40;99.90;;;;;;5083817;28;19935;-74
2021/12/18 08:35:18;;;;;;;;;;;9.40;99.90;;;;;;5083925;28;20417;-74
2021/12/18 08:37:47;;;;;;;;;;;9.40;99.90;;;;;;5077573;28;20341;-74
2021/12/18 08:40:14;;;;;;;;;;;9.40;99.90;;;;;;5086378;28;20002;-74
2021/12/18 08:42:41;;;;;;;;;;;9.90;99.90;;;;;;5084645;28;20053;-74
2021/12/18 08:45:08;;;;;;;;;;;9.50;99.90;;;;;;5083743;28;19939;-74
2021/12/18 08:47:34;;;;;;;;;;;9.40;99.90;;;;;;5084574;28;19924;-74
2021/12/18 08:50:01;;;;;;;;;;;9.40;99.90;;;;;;5078173;28;20077;-74
2021/12/18 08:52:28;;;;;;;;;;;9.40;99.90;;;;;;5082216;28;20388;-74
2021/12/18 08:54:56;;;;;;;;;;;9.40;99.90;;;;;;5078922;28;20391;-74
2021/12/18 08:57:23;;;;;;;;;;;9.50;99.90;;;;;;5081295;28;19943;-74
2021/12/18 08:59:49;;;;;;;;;;;9.50;99.90;;;;;;5076948;28;19928;-74
2021/12/18 09:02:16;;;;;;;;;;;9.40;99.90;;;;;;5081574;28;19928;-74
2021/12/18 09:04:43;;;;;;;;;;;9.40;99.90;;;;;;5084984;28;19924;-74
2021/12/18 09:07:10;;;;;;;;;;;9.50;99.90;;;;;;5082803;28;19928;-75
2021/12/18 09:09:38;;;;;;;;;;;9.50;99.90;;;;;;5071794;28;19983;-76
2021/12/18 09:12:07;;;;;;;;;;;9.50;99.90;;;;;;5074308;28;20331;-75
2021/12/18 09:14:34;;;;;;;;;;;9.50;99.90;;;;;;5085828;28;19932;-75
2021/12/18 09:17:01;;;;;;;;;;;;;;;;;;5082530;28;20417;-75
2021/12/18 09:19:28;;;;;;;;;;;;;;;;;;5075969;28;19939;-75
2021/12/18 09:21:55;;;;;;;;;;;;;;;;;;5079375;28;19932;-75
2021/12/18 09:24:22;;;;;;;;;;;9.50;99.90;;;;;;5086831;28;19935;-74
2021/12/18 09:26:49;;;;;;;;;;;9.60;99.90;;;;;;5085616;28;20523;-72
2021/12/18 09:29:15;;;;;;;;;;;;;;;;;;5088142;28;20396;-73
2021/12/18 09:31:42;;;;;;;;;;;;;;;;;;5089368;28;19928;-73
2021/12/18 09:34:09;;;;;;;;;;;;;;;;;;5087053;28;20451;-73
2021/12/18 09:36:37;;;;;;;;;;;;;;;;;;5089304;28;19928;-73
2021/12/18 09:39:04;;;;;;;;;;;;;;;;;;5088294;28;19927;-74
2021/12/18 09:41:31;;;;;;;;;;;;;;;;;;5088460;28;19953;-73
2021/12/18 09:43:58;;;;;;;;;;;;;;;;;;5086058;28;19924;-74
2021/12/18 09:46:25;;;;;;;;;;;;;;;;;;5087467;28;19932;-73
2021/12/18 09:48:52;;;;;;;;;;;;;;;;;;5089250;28;19924;-73
2021/12/18 09:51:24;;;;;;;;;;;9.60;99.90;;;;;;5083766;28;20468;-74
2021/12/18 09:53:53;;;;;;;;;;;9.60;99.90;;;;;;5083316;28;19935;-74
2021/12/18 09:56:20;;;;;;;;;;;9.70;99.90;;;;;;5085247;28;20366;-74
2021/12/18 09:58:47;;;;;;;;;;;9.60;99.90;;;;;;5081599;28;20262;-73
2021/12/18 10:01:14;;;;;;;;;;;9.60;99.90;;;;;;5089015;28;19935;-72
2021/12/18 10:03:44;;;;;;;;;;;11.40;99.90;;;;;;5092192;28;19962;-72
2021/12/18 10:06:26;;;;;;;;;;;9.60;99.90;;;;;;5087706;28;20584;-72
2021/12/18 10:08:54;;;;;;;80.40;21.33;;;9.70;99.90;;;;;;5082673;28;20441;-72
2021/12/18 10:11:21;;;;;;;85.37;20.97;;;9.70;99.90;;;;;;5086420;28;20212;-72
2021/12/18 10:13:53;;;;;;;111.73;27.70;;;9.80;99.90;;;;;;5081385;28;20665;-74
2021/12/18 10:16:21;;;;;;;88.53;22.83;;;9.80;99.90;;;;;;5086440;28;20240;-74
2021/12/18 10:18:48;;;;;;;101.73;25.90;;;9.80;99.90;;;;;;5067659;28;20230;-74
2021/12/18 10:21:17;;;;;;;91.97;23.10;;;9.90;99.90;;;;;;5072213;28;20715;-74
2021/12/18 10:23:46;;;;;;;100.53;24.50;;;9.90;99.90;;;;;;5073868;28;20220;-74
2021/12/18 10:26:40;;;;;;;97.30;24.90;;;10.00;99.90;;;;;;5074630;28;20222;-74
2021/12/18 10:29:24;;;;;;;101.10;25.77;;;10.00;99.90;;;;;;5056890;28;20333;-74
2021/12/18 10:31:51;;;;;;;120.37;27.67;;;10.00;99.90;;;;;;5076409;28;20233;-74
2021/12/18 10:34:20;;;;;;;88.93;24.00;;;10.00;99.90;;;;;;5083462;28;20215;-71
2021/12/18 10:37:10;;;;;;;97.07;23.73;;;9.90;99.90;;;;;;5085681;28;20217;-71
2021/12/18 10:39:39;;;;;;;96.07;23.33;;;9.90;99.90;;;;;;5086159;28;20222;-73
2021/12/18 10:42:26;;;;;;;90.93;23.70;;;9.90;99.90;;;;;;5081217;28;20234;-74
2021/12/18 10:45:04;;;;;;;82.73;21.97;;;9.90;99.90;;;;;;5087527;28;20210;-74
2021/12/18 10:47:53;;;;;;;103.07;25.27;;;10.00;99.90;;;;;;5083816;28;20229;-74
2021/12/18 10:50:25;;;;;;;105.27;26.00;;;10.00;99.90;;;;;;5074860;28;20217;-74
2021/12/18 10:52:56;;;;;;;102.67;25.63;;;10.00;99.90;;;;;;5087206;28;20777;-74
2021/12/18 10:55:32;;;;;;;113.10;26.13;;;10.00;99.90;;;;;;5082608;28;20202;-74
2021/12/18 10:58:02;;;;;;;87.67;23.10;;;10.00;99.90;;;;;;5081000;28;20215;-74
2021/12/18 11:00:48;;;;;;;84.23;21.77;;;10.00;99.90;;;;;;5085535;28;20316;-74
2021/12/18 11:03:17;;;;;;;75.83;19.27;;;10.10;99.90;;;;;;5082698;28;20243;-74
2021/12/18 11:06:01;;;;;;;81.53;20.03;;;10.00;99.90;;;;;;5073523;28;20271;-74
2021/12/18 11:08:28;;;;;;;82.13;19.40;;;;;;;;;;5069346;28;20212;-74
2021/12/18 11:13:38;;;;;;;80.40;19.47;;;10.10;99.90;;;;;;5072819;28;21282;-74
2021/12/18 11:13:49;;;;;;;95.30;22.83;;;10.10;99.90;;;;;;5074020;28;20625;-74
2021/12/18 11:16:17;;;;;;;89.10;22.97;;;10.00;99.90;;;;;;5078297;28;20267;-74
2021/12/18 11:18:44;;;;;;;85.90;23.73;;;10.00;99.90;;;;;;5070347;28;20470;-74
2021/12/18 11:21:11;;;;;;;86.93;22.07;;;10.00;99.90;;;;;;5071907;28;20226;-74
2021/12/18 11:23:40;;;;;;;68.00;17.53;;;10.00;99.90;;;;;;5086820;28;20198;-73
2021/12/18 11:26:09;;;;;;;84.13;21.07;;;9.90;99.90;;;;;;5080913;28;20271;-73
2021/12/18 11:28:42;;;;;;;69.37;18.73;;;9.90;99.90;;;;;;5081836;28;20611;-73
2021/12/18 11:31:12;;;;;;;96.60;22.43;;;9.90;99.90;;;;;;5079124;28;20272;-73
2021/12/18 11:33:39;;;;;;;58.00;13.40;;;10.00;99.90;;;;;;5080506;28;20206;-73
2021/12/18 11:36:08;;;;;;;55.43;13.70;;;9.90;99.90;;;;;;5082582;28;20214;-73
2021/12/18 11:38:37;;;;;;;55.10;12.70;;;9.90;99.90;;;;;;5081778;28;20606;-73
2021/12/18 11:41:04;;;;;;;66.63;16.13;;;;;;;;;;5074728;28;20214;-73
2021/12/18 11:43:35;;;;;;;68.70;15.13;;;9.90;99.90;;;;;;5072085;28;20213;-73
2021/12/18 11:46:03;;;;;;;73.43;16.53;;;9.90;99.90;;;;;;5073718;28;20699;-74
2021/12/18 11:48:55;;;;;;;71.80;17.23;;;9.90;99.90;;;;;;5084554;28;20215;-73
2021/12/18 11:51:23;;;;;;;76.23;17.47;;;9.90;99.90;;;;;;5074818;28;20207;-73
2021/12/18 11:53:50;;;;;;;67.40;16.70;;;11.00;99.90;;;;;;5072188;28;20689;-73
2021/12/18 11:56:17;;;;;;;97.67;22.90;;;9.90;99.90;;;;;;5073660;28;20638;-73
2021/12/18 11:58:46;;;;;;;85.33;21.13;;;10.00;99.90;;;;;;5072157;28;20221;-73
2021/12/18 12:01:17;;;;;;;77.50;17.43;;;9.90;99.90;;;;;;5085032;28;20217;-73
2021/12/18 12:03:47;;;;;;;72.10;17.13;;;9.90;99.90;;;;;;5084844;28;20215;-73
2021/12/18 12:06:31;;;;;;;68.40;16.97;;;9.90;99.90;;;;;;5082335;28;20261;-73
2021/12/18 12:09:26;;;;;;;86.10;20.40;;;9.90;99.90;;;;;;5083864;28;20695;-73
2021/12/18 12:11:59;;;;;;;75.17;18.70;;;9.80;99.90;;;;;;5082096;28;20236;-73
2021/12/18 12:14:27;;;;;;;99.47;22.03;;;9.80;99.90;;;;;;5076578;28;20211;-74
2021/12/18 12:17:12;;;;;;;101.63;23.10;;;9.70;99.90;;;;;;5082254;28;20232;-74
2021/12/18 12:19:55;;;;;;;107.70;25.77;;;9.80;99.90;;;;;;5077095;28;20229;-74
2021/12/18 12:22:36;;;;;;;80.60;19.93;;;9.70;99.90;;;;;;5085047;28;20272;-73
2021/12/18 12:25:06;;;;;;;96.07;23.67;;;9.70;99.90;;;;;;5081331;28;20225;-74
2021/12/18 12:27:35;;;;;;;71.90;18.13;;;9.60;99.90;;;;;;5083818;28;20207;-74
2021/12/18 12:30:06;;;;;;;87.63;19.57;;;9.40;99.90;;;;;;5076045;28;20222;-74
2021/12/18 12:32:33;;;;;;;64.60;14.23;;;9.50;99.90;;;;;;5082362;28;20230;-74
2021/12/18 12:35:04;;;;;;;68.67;14.10;;;9.50;99.90;;;;;;5081670;28;20215;-72
2021/12/18 12:37:35;;;;;;;54.37;12.50;;;9.40;99.90;;;;;;5083225;28;20210;-73
2021/12/18 12:40:06;;;;;;;60.60;13.83;;;9.40;99.90;;;;;;5074863;28;20238;-73
2021/12/18 12:42:34;;;;;;;66.10;13.47;;;9.30;99.90;;;;;;5072105;28;20234;-73
2021/12/18 12:45:08;;;;;;;64.30;13.97;;;9.30;99.90;;;;;;5073368;28;20207;-73
2021/12/18 12:47:35;;;;;;;61.07;13.37;;;9.30;99.90;;;;;;5078493;28;20520;-73
2021/12/18 12:50:31;;;;;;;65.40;14.07;;;9.30;99.90;;;;;;5077362;28;20243;-73
2021/12/18 12:53:00;;;;;;;79.13;16.77;;;9.20;99.90;;;;;;5080523;28;20233;-73
2021/12/18 12:55:30;;;;;;;53.37;12.93;;;9.20;99.90;;;;;;5079257;28;20205;-73
2021/12/18 12:57:58;;;;;;;57.43;12.67;;;9.10;99.90;;;;;;5082791;28;20672;-73
2021/12/18 13:00:47;;;;;;;67.60;15.40;;;9.10;99.90;;;;;;5078986;28;20561;-73
2021/12/18 13:03:26;;;;;;;80.93;18.20;;;9.00;99.90;;;;;;5098798;28;20520;-73
2021/12/18 13:06:00;;;;;;;75.10;17.17;;;9.00;99.90;;;;;;5086821;28;20208;-73
2021/12/18 13:08:29;;;;;;;88.10;18.97;;;9.10;99.90;;;;;;5088600;28;20587;-73
2021/12/18 13:10:59;;;;;;;71.73;17.40;;;;;;;;;;5078144;28;20291;-73
2021/12/18 13:13:28;;;;;;;68.40;15.63;;;9.10;99.90;;;;;;5082540;28;20318;-73
2021/12/18 13:15:58;;;;;;;80.10;18.23;;;9.10;99.90;;;;;;5089458;28;20205;-73
2021/12/18 13:18:28;;;;;;;75.03;17.20;;;9.10;99.90;;;;;;5087630;28;20206;-72
2021/12/18 13:20:57;;;;;;;79.57;19.33;;;9.10;99.90;;;;;;5090939;28;20229;-72
2021/12/18 13:23:38;;;;;;;72.60;16.23;;;9.10;99.90;;;;;;5076286;28;20234;-72
2021/12/18 13:26:07;;;;;;;78.50;19.63;;;9.00;99.90;;;;;;5084871;28;20213;-74
2021/12/18 13:28:34;;;;;;;76.87;18.70;;;9.00;99.90;;;;;;5089413;28;20212;-72
2021/12/18 13:31:01;;;;;;;76.37;19.40;;;;;;;;;;5080504;28;20688;-72
2021/12/18 13:33:30;;;;;;;72.33;17.70;;;9.00;99.90;;;;;;5087005;28;20226;-72
2021/12/18 13:35:59;;;;;;;98.30;23.53;;;9.00;99.90;;;;;;5083133;28;20695;-72
2021/12/18 13:38:34;;;;;;;65.33;18.30;;;9.00;99.90;;;;;;5078593;28;20601;-72
2021/12/18 13:41:02;;;;;;;86.73;24.00;;;9.00;99.90;;;;;;5079525;28;20219;-73
2021/12/18 13:43:30;;;;;;;78.27;21.37;;;;;;;;;;5078148;28;20223;-72
2021/12/18 13:45:59;;;;;;;79.63;21.50;;;8.90;99.90;;;;;;5076163;28;20218;-72
2021/12/18 13:48:28;;;;;;;86.07;22.07;;;8.80;99.90;;;;;;5076704;28;20656;-72
2021/12/18 13:50:57;;;;;;;75.33;20.97;;;8.80;99.90;;;;;;5076775;28;20205;-73
2021/12/18 13:53:24;;;;;;;65.63;16.87;;;8.80;99.90;;;;;;5077243;28;20232;-73
2021/12/18 13:55:58;;;;;;;57.33;16.37;;;8.70;99.90;;;;;;5078352;28;20211;-74
2021/12/18 13:58:29;;;;;;;74.40;17.83;;;8.70;99.90;;;;;;5074264;28;20784;-73
2021/12/18 14:01:04;;;;;;;65.23;16.67;;;8.70;99.90;;;;;;5076171;28;20225;-74
2021/12/18 14:03:34;;;;;;;64.23;15.90;;;8.70;99.90;;;;;;5086807;28;20710;-75
2021/12/18 14:06:06;;;;;;;66.00;17.03;;;8.70;99.90;;;;;;5086003;28;20290;-74
2021/12/18 14:08:35;;;;;;;61.37;16.73;;;8.70;99.90;;;;;;5076070;28;20213;-75
2021/12/18 14:11:04;;;;;;;67.50;18.30;;;8.60;99.90;;;;;;5075541;28;20204;-74
2021/12/18 14:13:42;;;;;;;73.77;18.60;;;8.60;99.90;;;;;;5078245;28;20208;-75
2021/12/18 14:16:09;;;;;;;67.90;18.40;;;8.60;99.90;;;;;;5086783;28;20211;-75
2021/12/18 14:18:38;;;;;;;76.87;21.67;;;8.60;99.90;;;;;;5083589;28;20424;-75
2021/12/18 14:21:05;;;;;;;73.97;19.40;;;;;;;;;;5084968;28;20224;-75
2021/12/18 14:23:35;;;;;;;77.10;21.63;;;8.50;99.90;;;;;;5082106;28;20676;-75
2021/12/18 14:26:21;;;;;;;69.67;21.60;;;8.50;99.90;;;;;;5076394;28;20521;-76
2021/12/18 14:28:51;;;;;;;70.77;22.30;;;10.40;99.90;;;;;;5075533;28;20688;-74
2021/12/18 14:31:31;;;;;;;76.37;24.07;;;8.40;99.90;;;;;;5076640;28;20214;-74
2021/12/18 14:34:00;;;;;;;72.10;23.97;;;8.40;99.90;;;;;;5073969;28;20213;-74